Time;durP1;ratioP1;P1;durP2;ratioP2;P2;SDS_P1;SDS_P2;PMS_P1;PMS_P2;Temp;Humidity;BMP_temperature;BMP_pressure;BME280_temperature;BME280_humidity;BME280_pressure;Samples;Min_cycle;Max_cycle;Signal;HPM_P1;HPM_P2
2023/01/17 00:01:08;;;;;;;6.30;5.70;;;3.10;99.90;;;;;;5141352;27;20462;-65
2023/01/17 00:09:51;;;;;;;6.10;5.50;;;3.10;99.90;;;;;;5141669;27;20895;-67
2023/01/17 00:11:55;;;;;;;6.90;6.20;;;3.00;99.90;;;;;;5120555;28;20889;-68
2023/01/17 00:14:22;;;;;;;8.13;7.33;;;3.00;99.90;;;;;;5120157;28;20482;-67
2023/01/17 00:16:50;;;;;;;7.77;6.97;;;3.10;99.90;;;;;;5121043;28;20445;-65
2023/01/17 01:34:10;;;;;;;5.57;3.60;;;2.70;99.90;;;;;;5118300;27;20493;-67
2023/01/17 01:36:37;;;;;;;3.97;3.30;;;2.60;99.90;;;;;;5118772;28;20777;-68
2023/01/17 01:39:04;;;;;;;3.37;3.07;;;2.60;99.90;;;;;;5119344;28;20459;-68
2023/01/17 01:41:36;;;;;;;3.20;2.80;;;2.50;99.90;;;;;;5118976;28;20553;-67
2023/01/17 01:44:03;;;;;;;4.97;2.90;;;2.40;99.90;;;;;;5124610;27;20887;-67
2023/01/17 01:46:35;;;;;;;3.43;2.93;;;2.40;99.90;;;;;;5139928;27;20722;-67
2023/01/17 01:49:06;;;;;;;4.00;3.40;;;2.30;99.90;;;;;;5138677;27;20463;-68
2023/01/17 01:51:38;;;;;;;4.33;3.93;;;2.30;99.90;;;;;;5139448;27;20869;-68
2023/01/17 01:54:11;;;;;;;4.33;3.93;;;2.30;99.90;;;;;;5135200;27;20455;-68
2023/01/17 01:56:41;;;;;;;4.60;4.00;;;2.30;99.90;;;;;;5126880;27;20858;-68
2023/01/17 01:59:11;;;;;;;6.00;3.50;;;2.40;99.90;;;;;;5139827;27;20454;-67
2023/01/17 02:01:38;;;;;;;7.37;3.83;;;2.40;99.90;;;;;;5139597;27;20463;-67
2023/01/17 02:04:08;;;;;;;6.00;4.97;;;2.30;99.90;;;;;;5138693;27;20497;-67
2023/01/17 02:06:38;;;;;;;6.13;4.47;;;2.30;99.90;;;;;;5118455;28;20463;-66
2023/01/17 02:09:08;;;;;;;8.50;5.70;;;2.30;99.90;;;;;;5118700;28;20460;-65
2023/01/17 02:11:38;;;;;;;5.97;4.53;;;2.30;99.90;;;;;;5119409;27;20463;-65
2023/01/17 02:14:07;;;;;;;7.33;5.73;;;2.30;99.90;;;;;;5117100;28;20816;-65
2023/01/17 02:16:47;;;;;;;5.83;5.23;;;2.30;99.90;;;;;;5118265;28;20500;-65
2023/01/17 02:19:41;;;;;;;8.10;5.20;;;2.30;99.90;;;;;;5118580;28;20871;-64
2023/01/17 02:22:32;;;;;;;5.30;4.30;;;2.40;99.90;;;;;;5090696;27;20458;-65
2023/01/17 02:25:28;;;;;;;5.93;4.00;;;2.30;99.90;;;;;;5138267;27;20454;-64
2023/01/17 02:28:11;;;;;;;7.63;4.70;;;2.30;99.90;;;;;;5139217;27;20461;-67
2023/01/17 02:30:43;;;;;;;8.37;4.40;;;2.30;99.90;;;;;;5138273;27;20462;-66
2023/01/17 02:33:22;;;;;;;5.60;4.07;;;2.30;99.90;;;;;;5136364;27;20433;-65
2023/01/17 02:35:56;;;;;;;4.47;3.73;;;2.30;99.90;;;;;;5129637;27;20460;-65
2023/01/17 02:38:36;;;;;;;5.87;4.40;;;2.30;99.90;;;;;;5118770;28;20462;-65
2023/01/17 02:41:06;;;;;;;4.73;3.53;;;2.30;99.90;;;;;;5117258;28;20550;-65
2023/01/17 02:43:35;;;;;;;5.13;3.97;;;2.40;99.90;;;;;;5118537;28;20483;-65
2023/01/17 02:46:04;;;;;;;5.07;3.70;;;2.30;99.90;;;;;;5123649;27;20459;-65
2023/01/17 02:48:34;;;;;;;5.00;3.93;;;2.30;99.90;;;;;;5128873;27;20460;-65
2023/01/17 02:51:16;;;;;;;6.43;4.10;;;2.40;99.90;;;;;;5117977;28;20502;-65
2023/01/17 02:53:54;;;;;;;5.23;3.90;;;2.30;99.90;;;;;;5118725;28;20540;-65
2023/01/17 02:56:34;;;;;;;5.83;4.50;;;2.40;99.90;;;;;;5122090;28;20465;-65
2023/01/17 02:59:13;;;;;;;5.73;4.43;;;2.40;99.90;;;;;;5138616;28;20485;-65
2023/01/17 03:01:52;;;;;;;8.77;5.00;;;2.40;99.90;;;;;;5125294;28;20460;-65
2023/01/17 03:04:24;;;;;;;8.80;3.90;;;2.30;99.90;;;;;;5118537;28;20455;-66
2023/01/17 03:06:56;;;;;;;4.27;3.60;;;2.30;99.90;;;;;;5122165;28;20459;-67
2023/01/17 03:09:25;;;;;;;4.30;3.40;;;2.30;99.90;;;;;;5138599;27;20918;-68
2023/01/17 03:11:53;;;;;;;4.70;3.23;;;2.20;99.90;;;;;;5136845;28;20455;-66
2023/01/17 03:14:20;;;;;;;5.80;3.47;;;2.20;99.90;;;;;;5137953;28;20580;-65
2023/01/17 03:16:48;;;;;;;4.50;3.63;;;2.30;99.90;;;;;;5136330;28;20891;-65
2023/01/17 03:19:16;;;;;;;5.80;3.83;;;2.20;99.90;;;;;;5137237;28;20451;-65
2023/01/17 03:21:43;;;;;;;5.73;3.87;;;2.20;99.90;;;;;;5138077;28;20728;-67
2023/01/17 03:24:10;;;;;;;5.90;3.83;;;2.20;99.90;;;;;;5138286;28;20773;-67
2023/01/17 03:26:37;;;;;;;6.00;4.10;;;2.20;99.90;;;;;;5126217;28;20466;-65
2023/01/17 03:29:04;;;;;;;5.60;4.47;;;2.00;99.90;;;;;;5119901;28;20456;-64
2023/01/17 03:31:32;;;;;;;7.57;3.67;;;1.90;99.90;;;;;;5117622;28;20801;-66
2023/01/17 03:34:00;;;;;;;6.90;3.50;;;1.80;99.90;;;;;;5117531;28;20918;-64
2023/01/17 03:36:27;;;;;;;7.00;4.07;;;1.80;99.90;;;;;;5117872;28;20508;-65
2023/01/17 03:38:54;;;;;;;4.20;2.90;;;1.80;99.90;;;;;;5117201;28;20885;-64
2023/01/17 03:41:21;;;;;;;3.43;3.10;;;1.80;99.90;;;;;;5127587;28;20481;-64
2023/01/17 03:43:49;;;;;;;4.80;3.30;;;1.70;99.90;;;;;;5138058;28;20444;-64
2023/01/17 03:46:21;;;;;;;5.63;3.40;;;1.70;99.90;;;;;;5137364;28;20919;-63
2023/01/17 03:48:49;;;;;;;5.90;3.20;;;1.70;99.90;;;;;;5117122;28;20467;-63
2023/01/17 03:51:17;;;;;;;4.73;3.53;;;1.60;99.90;;;;;;5115366;28;20490;-63
2023/01/17 03:53:46;;;;;;;5.60;4.37;;;1.60;99.90;;;;;;5118560;28;20459;-63
2023/01/17 03:56:13;;;;;;;5.53;3.37;;;1.70;99.90;;;;;;5119653;28;20486;-65
2023/01/17 03:58:41;;;;;;;5.63;4.00;;;1.70;99.90;;;;;;5135242;27;20459;-64
2023/01/17 04:01:08;;;;;;;6.60;4.30;;;1.70;99.90;;;;;;5139405;27;20454;-65
2023/01/17 04:03:35;;;;;;;7.23;4.87;;;1.70;99.90;;;;;;5140056;27;20465;-64
2023/01/17 04:06:02;;;;;;;6.43;4.87;;;1.70;99.90;;;;;;5139788;27;20466;-65
2023/01/17 04:08:31;;;;;;;7.33;5.53;;;1.70;99.90;;;;;;5128089;27;20459;-65
2023/01/17 04:10:58;;;;;;;6.97;4.70;;;1.70;99.90;;;;;;5121134;28;20487;-65
2023/01/17 04:13:25;;;;;;;7.87;5.40;;;1.70;99.90;;;;;;5120079;27;20574;-65
2023/01/17 04:15:52;;;;;;;8.73;5.20;;;1.70;99.90;;;;;;5121157;28;20463;-66
2023/01/17 04:18:21;;;;;;;6.67;5.53;;;1.70;99.90;;;;;;5126508;27;20545;-65
2023/01/17 04:20:49;;;;;;;7.33;5.40;;;1.70;99.90;;;;;;5140747;27;20818;-66
2023/01/17 04:23:16;;;;;;;6.53;5.57;;;1.70;99.90;;;;;;5141219;27;20926;-65
2023/01/17 04:25:45;;;;;;;9.27;6.20;;;1.70;99.90;;;;;;5141296;27;20459;-64
2023/01/17 04:28:12;;;;;;;9.93;6.60;;;1.70;99.90;;;;;;5138821;27;20462;-66
2023/01/17 04:30:39;;;;;;;10.40;7.07;;;1.70;99.90;;;;;;5120226;28;20531;-66
2023/01/17 04:33:07;;;;;;;10.43;6.10;;;1.70;99.90;;;;;;5120250;27;20906;-66
2023/01/17 04:35:34;;;;;;;9.37;6.90;;;1.70;99.90;;;;;;5119488;28;20911;-66
2023/01/17 04:38:01;;;;;;;9.30;6.30;;;1.70;99.90;;;;;;5120273;28;20550;-66
2023/01/17 04:40:29;;;;;;;9.97;6.80;;;1.70;99.90;;;;;;5134849;27;20546;-65
2023/01/17 04:42:58;;;;;;;8.17;6.57;;;1.80;99.90;;;;;;5140359;27;20441;-65
2023/01/17 04:45:25;;;;;;;11.37;7.50;;;1.80;99.90;;;;;;5140851;27;20565;-65
2023/01/17 04:47:53;;;;;;;10.17;7.10;;;1.70;99.90;;;;;;5140893;27;20465;-66
2023/01/17 04:50:20;;;;;;;11.43;6.80;;;1.70;99.90;;;;;;5129158;27;20483;-66
2023/01/17 04:52:47;;;;;;;8.30;6.60;;;1.70;99.90;;;;;;5120114;28;20903;-65
2023/01/17 04:55:14;;;;;;;8.97;7.17;;;1.70;99.90;;;;;;5119822;28;20831;-66
2023/01/17 04:57:42;;;;;;;8.40;7.40;;;1.70;99.90;;;;;;5120357;28;20463;-66
2023/01/17 05:00:11;;;;;;;9.17;7.53;;;1.70;99.90;;;;;;5125162;27;20547;-66
2023/01/17 05:02:38;;;;;;;11.23;7.00;;;1.70;99.90;;;;;;5140142;27;20465;-66
2023/01/17 05:05:07;;;;;;;9.80;7.47;;;1.70;99.90;;;;;;5139208;27;20891;-66
2023/01/17 05:07:34;;;;;;;10.10;6.87;;;1.70;99.90;;;;;;5140392;27;20523;-66
2023/01/17 05:10:01;;;;;;;6.77;5.73;;;1.80;99.90;;;;;;5139133;27;20557;-65
2023/01/17 05:12:29;;;;;;;10.83;7.17;;;1.70;99.90;;;;;;5119665;27;20459;-65
2023/01/17 05:14:56;;;;;;;8.40;5.70;;;1.70;99.90;;;;;;5118874;28;20548;-65
2023/01/17 05:17:24;;;;;;;9.57;6.80;;;1.70;99.90;;;;;;5119760;28;20467;-65
2023/01/17 05:19:52;;;;;;;13.07;7.97;;;1.70;99.90;;;;;;5119680;28;20460;-65
2023/01/17 05:22:19;;;;;;;11.57;7.90;;;1.70;99.90;;;;;;5119187;28;20447;-65
2023/01/17 05:24:47;;;;;;;7.93;6.53;;;1.70;99.90;;;;;;5119351;27;20767;-65
2023/01/17 05:27:15;;;;;;;12.20;7.17;;;1.70;99.90;;;;;;5119249;28;20470;-65
2023/01/17 05:29:42;;;;;;;8.30;6.20;;;1.70;99.90;;;;;;5118721;28;20565;-65
2023/01/17 05:32:09;;;;;;;9.07;5.90;;;1.70;99.90;;;;;;5125759;27;20491;-65
2023/01/17 05:34:38;;;;;;;6.43;5.10;;;1.70;99.90;;;;;;5119110;28;20817;-65
2023/01/17 05:37:05;;;;;;;8.57;5.33;;;1.70;99.90;;;;;;5118613;28;20440;-65
2023/01/17 05:39:32;;;;;;;13.83;5.70;;;1.70;99.90;;;;;;5119377;28;20470;-65
2023/01/17 05:41:59;;;;;;;10.50;7.00;;;1.60;99.90;;;;;;5124446;27;20490;-64
2023/01/17 05:44:27;;;;;;;8.00;6.20;;;1.60;99.90;;;;;;5139049;27;20888;-64
2023/01/17 05:46:54;;;;;;;8.23;6.40;;;1.60;99.90;;;;;;5139641;27;20463;-64
2023/01/17 05:49:21;;;;;;;10.50;6.70;;;1.60;99.90;;;;;;5138842;27;20465;-64
2023/01/17 05:51:50;;;;;;;10.40;6.20;;;1.60;99.90;;;;;;5138168;27;20483;-64
2023/01/17 05:54:17;;;;;;;9.33;6.03;;;1.60;99.90;;;;;;5137427;27;20463;-64
2023/01/17 05:56:45;;;;;;;7.67;5.67;;;1.60;99.90;;;;;;5129264;27;20435;-64
2023/01/17 05:59:12;;;;;;;10.90;6.80;;;1.60;99.90;;;;;;5128937;27;20462;-62
2023/01/17 06:01:39;;;;;;;8.60;6.17;;;1.60;99.90;;;;;;5138510;27;20496;-64
2023/01/17 06:04:06;;;;;;;10.50;6.20;;;1.60;99.90;;;;;;5137513;27;20437;-64
2023/01/17 06:06:33;;;;;;;11.30;7.50;;;1.60;99.90;;;;;;5135713;27;20472;-64
2023/01/17 06:09:02;;;;;;;9.87;7.63;;;1.70;99.90;;;;;;5138870;27;20455;-64
2023/01/17 06:11:29;;;;;;;11.77;8.93;;;1.70;99.90;;;;;;5137794;27;20493;-64
2023/01/17 06:13:56;;;;;;;13.07;9.60;;;1.70;99.90;;;;;;5117818;27;20491;-64
2023/01/17 06:16:23;;;;;;;11.33;8.83;;;1.70;99.90;;;;;;5137100;27;20462;-64
2023/01/17 06:18:50;;;;;;;13.60;10.13;;;1.70;99.90;;;;;;5124718;27;20750;-65
2023/01/17 06:21:18;;;;;;;13.73;10.20;;;1.70;99.90;;;;;;5137245;27;20831;-64
2023/01/17 06:23:45;;;;;;;15.60;11.53;;;1.60;99.90;;;;;;5136014;27;20494;-64
2023/01/17 06:26:14;;;;;;;12.67;9.83;;;1.60;99.90;;;;;;5128501;27;20463;-64
2023/01/17 06:28:41;;;;;;;15.50;9.70;;;1.60;99.90;;;;;;5127506;27;20462;-65
2023/01/17 06:31:09;;;;;;;13.97;10.17;;;1.60;99.90;;;;;;5137607;27;20767;-64
2023/01/17 06:33:36;;;;;;;14.47;10.53;;;1.50;99.90;;;;;;5137347;27;20768;-64
2023/01/17 06:36:03;;;;;;;15.03;10.90;;;1.50;99.90;;;;;;5137191;27;20891;-63
2023/01/17 06:38:30;;;;;;;15.17;11.40;;;1.50;99.90;;;;;;5137026;27;20462;-63
2023/01/17 06:40:59;;;;;;;13.97;10.87;;;1.50;99.90;;;;;;5138031;27;20459;-64
2023/01/17 06:43:32;;;;;;;14.47;10.70;;;1.60;99.90;;;;;;5138630;27;20460;-64
2023/01/17 06:45:59;;;;;;;16.73;11.47;;;1.60;99.90;;;;;;5122728;27;20537;-64
2023/01/17 06:48:27;;;;;;;17.50;12.53;;;1.50;99.90;;;;;;5131356;27;20470;-64
2023/01/17 06:50:54;;;;;;;17.07;12.70;;;1.50;99.90;;;;;;5133023;27;20490;-64
2023/01/17 06:53:21;;;;;;;18.00;12.20;;;1.50;99.90;;;;;;5138293;27;20459;-64
2023/01/17 06:55:48;;;;;;;19.53;12.83;;;1.50;99.90;;;;;;5138012;27;20907;-64
2023/01/17 06:58:15;;;;;;;18.40;13.87;;;1.50;99.90;;;;;;5125498;28;20459;-63
2023/01/17 07:00:44;;;;;;;17.10;14.57;;;1.50;99.90;;;;;;5137831;27;20466;-64
2023/01/17 07:03:19;;;;;;;22.87;14.40;;;1.50;99.90;;;;;;5138472;27;20459;-64
2023/01/17 07:05:46;;;;;;;20.10;12.87;;;1.50;99.90;;;;;;5138382;27;20469;-64
2023/01/17 07:08:13;;;;;;;19.47;13.60;;;1.50;99.90;;;;;;5121761;27;20512;-64
2023/01/17 07:10:40;;;;;;;15.70;12.00;;;1.50;99.90;;;;;;5136545;28;20492;-64
2023/01/17 07:13:08;;;;;;;17.13;12.40;;;1.50;99.90;;;;;;5137664;27;20483;-64
2023/01/17 07:15:35;;;;;;;20.93;12.37;;;1.50;99.90;;;;;;5138159;27;20551;-64
2023/01/17 07:18:04;;;;;;;23.53;13.47;;;1.50;99.90;;;;;;5136447;27;20454;-63
2023/01/17 07:20:31;;;;;;;17.20;11.90;;;1.50;99.90;;;;;;5137889;27;20727;-64
2023/01/17 07:22:59;;;;;;;18.03;12.67;;;1.40;99.90;;;;;;5128068;27;20433;-64
2023/01/17 07:25:26;;;;;;;18.23;12.63;;;1.40;99.90;;;;;;5138004;27;20437;-64
2023/01/17 07:27:56;;;;;;;20.67;13.20;;;1.50;99.90;;;;;;5133052;27;20553;-64
2023/01/17 07:30:23;;;;;;;17.50;13.00;;;1.50;99.90;;;;;;5122221;27;20543;-64
2023/01/17 07:32:54;;;;;;;19.70;12.87;;;1.50;99.90;;;;;;5134282;27;20486;-64
2023/01/17 07:35:25;;;;;;;20.67;13.33;;;1.50;99.90;;;;;;5142066;27;20458;-63
2023/01/17 07:37:53;;;;;;;21.43;13.10;;;1.50;99.90;;;;;;5141022;27;20508;-64
2023/01/17 07:40:21;;;;;;;17.23;14.10;;;1.60;99.90;;;;;;5142136;27;20433;-63
2023/01/17 07:42:48;;;;;;;18.37;12.90;;;1.50;99.90;;;;;;5136741;27;20448;-64
2023/01/17 07:45:17;;;;;;;17.43;12.87;;;1.60;99.90;;;;;;5141847;27;20461;-64
2023/01/17 07:47:44;;;;;;;16.30;12.30;;;1.50;99.90;;;;;;5141463;27;20421;-64
2023/01/17 07:50:12;;;;;;;18.77;12.60;;;1.50;99.90;;;;;;5140601;27;20910;-64
2023/01/17 07:52:41;;;;;;;17.10;13.00;;;1.60;99.90;;;;;;5138899;27;20978;-64
2023/01/17 07:55:09;;;;;;;16.90;12.60;;;1.50;99.90;;;;;;5131537;27;20519;-64
2023/01/17 07:57:36;;;;;;;19.40;12.03;;;1.50;99.90;;;;;;5136566;27;20468;-64
2023/01/17 08:00:05;;;;;;;18.93;11.97;;;1.50;99.90;;;;;;5139020;27;20469;-64
2023/01/17 08:02:32;;;;;;;17.47;12.63;;;1.50;99.90;;;;;;5141075;27;20461;-64
2023/01/17 08:04:59;;;;;;;17.27;12.70;;;1.50;99.90;;;;;;5140461;27;20882;-64
2023/01/17 08:07:28;;;;;;;25.63;13.53;;;1.40;99.90;;;;;;5141415;27;20465;-63
2023/01/17 08:09:56;;;;;;;22.17;12.73;;;1.40;99.90;;;;;;5140201;27;20931;-64
2023/01/17 08:12:24;;;;;;;15.37;12.53;;;1.30;99.90;;;;;;5140019;27;20486;-64
2023/01/17 08:14:52;;;;;;;20.10;13.47;;;1.40;99.90;;;;;;5133280;27;20465;-64
2023/01/17 08:17:20;;;;;;;19.37;13.40;;;1.40;99.90;;;;;;5138707;27;20458;-64
2023/01/17 08:19:50;;;;;;;22.27;13.63;;;1.40;99.90;;;;;;5137230;27;20760;-64
2023/01/17 08:22:18;;;;;;;21.17;14.20;;;1.50;99.90;;;;;;5132514;27;20462;-64
2023/01/17 08:24:45;;;;;;;20.50;14.10;;;1.50;99.90;;;;;;5134265;27;20455;-64
2023/01/17 08:27:14;;;;;;;21.00;14.47;;;1.50;99.90;;;;;;5139071;27;20457;-64
2023/01/17 08:29:45;;;;;;;21.37;15.43;;;1.50;99.90;;;;;;5139454;27;20461;-64
2023/01/17 08:32:13;;;;;;;17.30;12.83;;;1.50;99.90;;;;;;5133126;27;20532;-64
2023/01/17 08:34:40;;;;;;;19.13;14.00;;;1.60;99.90;;;;;;5135310;27;20461;-64
2023/01/17 08:37:07;;;;;;;21.60;14.17;;;1.70;99.90;;;;;;5138006;27;20458;-64
2023/01/17 08:39:34;;;;;;;18.37;14.20;;;1.70;99.90;;;;;;5138462;27;20986;-64
2023/01/17 08:42:01;;;;;;;17.10;14.00;;;1.70;99.90;;;;;;5138681;27;20458;-64
2023/01/17 08:44:30;;;;;;;24.63;13.47;;;1.70;99.90;;;;;;5138600;27;20455;-64
2023/01/17 08:46:57;;;;;;;23.70;14.37;;;1.70;99.90;;;;;;5139201;27;20694;-64
2023/01/17 08:49:24;;;;;;;19.57;14.87;;;1.70;99.90;;;;;;5139473;27;20459;-64
2023/01/17 08:51:51;;;;;;;18.87;13.57;;;1.70;99.90;;;;;;5132356;27;20488;-64
2023/01/17 08:54:18;;;;;;;22.50;16.13;;;1.70;99.90;;;;;;5126910;27;20518;-64
2023/01/17 08:56:46;;;;;;;24.67;15.70;;;1.70;99.90;;;;;;5121033;28;20459;-64
2023/01/17 08:59:13;;;;;;;18.37;13.80;;;1.80;99.90;;;;;;5119806;28;20497;-64
2023/01/17 09:01:44;;;;;;;26.53;16.20;;;1.70;99.90;;;;;;5120044;27;20426;-64
2023/01/17 09:04:12;;;;;;;23.93;14.70;;;1.80;99.90;;;;;;5119740;28;20463;-64
2023/01/17 09:06:40;;;;;;;19.67;15.23;;;1.80;99.90;;;;;;5118958;28;20816;-65
2023/01/17 09:09:09;;;;;;;18.83;14.17;;;1.80;99.90;;;;;;5120833;28;20542;-65
2023/01/17 09:11:37;;;;;;;15.93;12.13;;;1.90;99.90;;;;;;5120372;28;20578;-64
2023/01/17 09:14:04;;;;;;;16.33;12.80;;;1.90;99.90;;;;;;5137779;27;20457;-64
2023/01/17 09:16:31;;;;;;;22.90;14.43;;;1.90;99.90;;;;;;5139956;27;20465;-65
2023/01/17 09:19:00;;;;;;;18.27;11.63;;;1.90;99.90;;;;;;5140748;27;20609;-65
2023/01/17 09:21:27;;;;;;;26.70;14.10;;;1.90;99.90;;;;;;5139488;27;20437;-64
2023/01/17 09:23:55;;;;;;;17.40;12.13;;;2.00;99.90;;;;;;5139271;27;20929;-65
2023/01/17 09:26:25;;;;;;;20.30;12.57;;;2.00;99.90;;;;;;5138944;27;20738;-65
2023/01/17 09:28:52;;;;;;;19.60;12.43;;;2.10;99.90;;;;;;5140398;27;20433;-65
2023/01/17 09:31:21;;;;;;;16.50;11.17;;;2.20;99.90;;;;;;5140418;27;20810;-65
2023/01/17 09:33:48;;;;;;;14.27;10.33;;;2.30;99.90;;;;;;5138003;27;20451;-65
2023/01/17 09:36:17;;;;;;;19.73;9.03;;;2.40;99.90;;;;;;5140386;27;20436;-65
2023/01/17 09:38:44;;;;;;;15.27;8.80;;;2.60;99.90;;;;;;5137570;27;20441;-65
2023/01/17 09:41:22;;;;;;;14.10;8.47;;;2.90;99.90;;;;;;5138638;27;20429;-65
2023/01/17 09:43:52;;;;;;;13.53;8.50;;;3.30;99.90;;;;;;5132891;27;20498;-63
2023/01/17 09:46:23;;;;;;;12.93;7.87;;;3.30;99.90;;;;;;5123864;27;20437;-63
2023/01/17 09:48:56;;;;;;;16.47;9.47;;;3.20;99.90;;;;;;5139290;27;20430;-63
2023/01/17 09:51:25;;;;;;;11.23;8.40;;;3.30;99.90;;;;;;5126129;27;20451;-65
2023/01/17 09:53:53;;;;;;;13.50;8.80;;;3.10;99.90;;;;;;5118584;28;20479;-65
2023/01/17 09:56:28;;;;;;;16.10;8.60;;;3.20;99.90;;;;;;5120433;27;20463;-65
2023/01/17 09:59:22;;;;;;;15.07;10.83;;;3.10;99.90;;;;;;5139625;27;20432;-65
2023/01/17 10:01:59;;;;;;;14.20;9.10;;;3.10;1.00;;;;;;5134572;27;20470;-65
2023/01/17 10:04:42;;;;;;;16.07;10.73;;;3.10;1.00;;;;;;5139174;27;20454;-65
2023/01/17 10:07:22;;;;;;;15.60;8.70;;;3.00;1.00;;;;;;5134203;27;20478;-65
2023/01/17 10:10:05;;;;;;;15.30;8.47;;;3.00;1.00;;;;;;5118794;28;20545;-63
2023/01/17 10:12:39;;;;;;;18.00;8.40;;;3.20;1.00;;;;;;5119025;27;20788;-63
2023/01/17 10:15:28;;;;;;;11.93;7.50;;;3.10;1.00;;;;;;5118834;28;20465;-63
2023/01/17 10:18:08;;;;;;;10.83;8.30;;;3.10;1.00;;;;;;5126204;27;20459;-65
2023/01/17 10:20:45;;;;;;;15.00;9.40;;;3.00;1.00;;;;;;5137455;27;20888;-65
2023/01/17 10:23:51;;;;;;;14.77;8.30;;;2.90;1.00;;;;;;5139207;27;20523;-65
2023/01/17 10:26:21;;;;;;;11.00;8.30;;;3.00;1.00;;;;;;5132039;27;20477;-65
2023/01/17 10:28:51;;;;;;;10.50;7.73;;;3.00;1.00;;;;;;5126786;27;20904;-63
2023/01/17 10:31:22;;;;;;;11.30;8.27;;;3.00;1.00;;;;;;5118783;28;20456;-65
2023/01/17 10:33:51;;;;;;;12.13;8.43;;;3.10;1.00;;;;;;5118063;27;20495;-65
2023/01/17 10:36:23;;;;;;;10.57;6.90;;;3.00;1.00;;;;;;5116610;28;20828;-65
2023/01/17 10:38:55;;;;;;;19.50;9.43;;;3.10;1.00;;;;;;5123868;27;20440;-65
2023/01/17 10:41:27;;;;;;;16.00;8.73;;;3.10;1.00;;;;;;5138051;27;20468;-66
2023/01/17 10:44:04;;;;;;;12.10;9.03;;;3.10;1.00;;;;;;5137443;27;20462;-64
2023/01/17 10:46:37;;;;;;;13.03;9.03;;;3.20;1.00;;;;;;5137570;27;20820;-63
2023/01/17 10:49:05;;;;;;;12.40;8.10;;;3.20;1.00;;;;;;5124389;27;20477;-66
2023/01/17 10:51:48;;;;;;;14.40;8.00;;;3.10;1.00;;;;;;5138710;27;20510;-66
2023/01/17 10:54:32;;;;;;;10.80;7.40;;;3.10;1.00;;;;;;5139326;27;20552;-66
2023/01/17 10:56:59;;;;;;;10.80;7.83;;;3.20;1.00;;;;;;5138086;27;20477;-66
2023/01/17 10:59:31;;;;;;;13.47;8.50;;;3.30;1.00;;;;;;5132229;27;20430;-66
2023/01/17 11:01:58;;;;;;;11.33;7.63;;;3.30;1.00;;;;;;5116060;28;20455;-66
2023/01/17 11:04:36;;;;;;;9.27;6.67;;;3.40;1.00;;;;;;5115664;28;20902;-66
2023/01/17 11:07:12;;;;;;;8.90;5.93;;;3.50;1.00;;;;;;5116165;28;20473;-66
2023/01/17 11:09:43;;;;;;;8.13;6.07;;;4.00;1.00;;;;;;5117783;28;20491;-66
2023/01/17 11:12:28;;;;;;;7.90;5.80;;;4.00;1.00;;;;;;5135699;28;20455;-66
2023/01/17 11:15:01;;;;;;;10.83;6.27;;;4.00;1.00;;;;;;5131227;28;20913;-66
2023/01/17 11:17:28;;;;;;;10.67;6.30;;;3.80;1.00;;;;;;5138728;28;20458;-65
2023/01/17 11:20:08;;;;;;;11.13;8.67;;;3.70;1.00;;;;;;5137809;27;20450;-66
2023/01/17 11:22:35;;;;;;;13.20;9.07;;;3.60;1.00;;;;;;5117357;28;20737;-66
2023/01/17 11:25:07;;;;;;;13.23;9.33;;;3.40;1.00;;;;;;5116838;28;20459;-66
2023/01/17 11:27:38;;;;;;;14.63;9.27;;;3.40;1.00;;;;;;5117238;28;20456;-66
2023/01/17 11:30:15;;;;;;;11.07;9.23;;;3.40;1.00;;;;;;5118079;28;20466;-66
2023/01/17 11:32:52;;;;;;;13.57;9.57;;;3.50;1.00;;;;;;5117715;28;20487;-66
2023/01/17 11:35:24;;;;;;;12.77;8.73;;;3.60;1.00;;;;;;5117692;28;20434;-66
2023/01/17 11:37:57;;;;;;;15.27;9.60;;;3.70;1.00;;;;;;5118468;28;20532;-66
2023/01/17 11:40:29;;;;;;;17.87;9.03;;;3.70;1.00;;;;;;5116984;28;20463;-66
2023/01/17 11:43:20;;;;;;;14.53;8.57;;;3.60;1.00;;;;;;5128695;28;20432;-66
2023/01/17 11:45:59;;;;;;;12.60;8.87;;;3.60;1.00;;;;;;5137344;28;20465;-66
2023/01/17 11:48:32;;;;;;;13.20;8.97;;;3.60;1.00;;;;;;5123852;28;20955;-66
2023/01/17 11:51:00;;;;;;;22.13;9.10;;;3.70;1.00;;;;;;5134472;28;20475;-66
2023/01/17 11:53:31;;;;;;;11.30;8.80;;;3.70;1.00;;;;;;5137753;28;20461;-66
2023/01/17 11:56:05;;;;;;;17.03;8.80;;;3.70;1.00;;;;;;5138087;28;20458;-66
2023/01/17 11:58:34;;;;;;;11.60;7.00;;;3.60;1.00;;;;;;5137839;27;20526;-66
2023/01/17 12:01:11;;;;;;;13.10;7.70;;;3.60;1.00;;;;;;5135969;28;20469;-66
2023/01/17 12:04:08;;;;;;;10.77;7.83;;;3.60;1.00;;;;;;5135351;28;20433;-66
2023/01/17 12:06:44;;;;;;;14.63;8.17;;;3.90;1.00;;;;;;5115623;28;20802;-66
2023/01/17 12:09:22;;;;;;;16.13;7.87;;;4.10;1.00;;;;;;5115382;28;20455;-66
2023/01/17 12:14:58;;;;;;;11.30;6.73;;;4.80;1.00;;;;;;5120192;27;20444;-66
2023/01/17 12:17:36;;;;;;;11.73;6.83;;;4.90;1.00;;;;;;5138696;27;20461;-66
2023/01/17 12:20:11;;;;;;;13.87;7.40;;;4.80;1.00;;;;;;5140713;27;20461;-66
2023/01/17 12:23:04;;;;;;;10.57;6.67;;;4.70;1.00;;;;;;5141086;27;20506;-66
2023/01/17 12:25:54;;;;;;;10.50;6.30;;;4.70;1.00;;;;;;5135886;27;20452;-66
2023/01/17 12:28:46;;;;;;;10.97;6.00;;;4.60;1.00;;;;;;5120847;28;20815;-66
2023/01/17 12:31:23;;;;;;;8.80;6.33;;;4.40;99.90;;;;;;5119415;27;20462;-66
2023/01/17 12:33:55;;;;;;;10.53;6.60;;;4.40;99.90;;;;;;5120615;28;20494;-65
2023/01/17 12:36:35;;;;;;;9.33;6.30;;;4.30;1.00;;;;;;5138069;27;20910;-65
2023/01/17 12:39:06;;;;;;;13.60;6.83;;;4.30;1.00;;;;;;5139156;27;20469;-65
2023/01/17 12:41:38;;;;;;;14.30;6.93;;;4.40;1.00;;;;;;5136510;27;20462;-65
2023/01/17 12:44:14;;;;;;;11.70;6.77;;;4.50;1.00;;;;;;5131832;27;20463;-64
2023/01/17 12:46:48;;;;;;;10.20;6.40;;;4.70;1.00;;;;;;5138752;27;20480;-64
2023/01/17 12:49:22;;;;;;;12.33;6.97;;;4.80;1.00;;;;;;5138304;27;20493;-64
2023/01/17 12:51:55;;;;;;;11.60;7.03;;;5.10;1.00;;;;;;5138967;27;20460;-64
2023/01/17 12:54:33;;;;;;;12.43;6.90;;;5.50;1.00;;;;;;5137344;27;20867;-64
2023/01/17 12:57:06;;;;;;;7.87;6.60;;;5.90;99.90;;;;;;5137683;27;20780;-64
2023/01/17 12:59:40;;;;;;;10.93;7.20;;;6.20;99.90;;;;;;5139387;27;20425;-64
2023/01/17 13:02:18;;;;;;;13.83;7.10;;;6.40;99.90;;;;;;5130090;27;20456;-62
2023/01/17 13:04:54;;;;;;;10.83;6.00;;;6.40;99.90;;;;;;5120276;27;20466;-61
2023/01/17 13:07:30;;;;;;;11.80;6.00;;;6.20;99.90;;;;;;5125336;27;20467;-61
2023/01/17 13:10:02;;;;;;;12.57;6.40;;;6.40;99.90;;;;;;5119551;28;20876;-61
2023/01/17 13:12:32;;;;;;;10.20;5.00;;;6.70;99.90;;;;;;5118910;27;20470;-61
2023/01/17 13:15:05;;;;;;;10.47;4.90;;;7.00;99.90;;;;;;5118338;28;20459;-61
2023/01/17 13:17:41;;;;;;;6.97;3.40;;;7.30;99.90;;;;;;5131737;27;20890;-63
2023/01/17 13:20:16;;;;;;;11.20;4.40;;;7.20;99.90;;;;;;5140133;27;20458;-63
2023/01/17 13:22:45;;;;;;;6.83;3.90;;;7.00;99.90;;;;;;5119651;28;20455;-63
2023/01/17 13:25:30;;;;;;;7.40;3.63;;;7.00;99.90;;;;;;5117119;28;20506;-61
2023/01/17 13:28:06;;;;;;;8.40;3.30;;;6.90;99.90;;;;;;5118803;28;20488;-61
2023/01/17 13:31:06;;;;;;;6.53;3.10;;;6.70;99.90;;;;;;5136422;27;20513;-62
2023/01/17 13:33:45;;;;;;;9.80;2.73;;;6.30;99.90;;;;;;5124717;27;20491;-62
2023/01/17 13:36:36;;;;;;;12.10;3.30;;;6.00;99.90;;;;;;5138282;27;20839;-62
2023/01/17 13:39:28;;;;;;;6.87;3.20;;;5.80;99.90;;;;;;5132565;27;20477;-64
2023/01/17 13:42:10;;;;;;;5.63;3.60;;;5.20;99.90;;;;;;5138275;27;20437;-64
2023/01/17 13:44:38;;;;;;;40.80;6.90;;;4.70;99.90;;;;;;5137205;27;20765;-64
2023/01/17 13:47:40;;;;;;;11.37;5.87;;;4.50;99.90;;;;;;5138789;27;20751;-64
2023/01/17 13:50:44;;;;;;;7.97;3.70;;;4.50;99.90;;;;;;5119180;28;20761;-64
2023/01/17 13:53:55;;;;;;;6.97;3.30;;;4.40;99.90;;;;;;5119959;27;20507;-64
2023/01/17 13:56:30;;;;;;;8.67;3.00;;;4.30;99.90;;;;;;5118893;27;20571;-64
2023/01/17 13:59:01;;;;;;;5.67;3.50;;;4.20;99.90;;;;;;5119510;27;20463;-64
2023/01/17 14:01:51;;;;;;;8.00;3.37;;;4.00;99.90;;;;;;5129094;27;20470;-64
2023/01/17 14:04:20;;;;;;;7.73;4.10;;;3.90;99.90;;;;;;5122612;27;20447;-64
2023/01/17 14:06:56;;;;;;;6.50;3.20;;;3.90;99.90;;;;;;5122403;27;20492;-64
2023/01/17 14:09:27;;;;;;;10.13;3.07;;;3.90;99.90;;;;;;5118412;28;20767;-64
2023/01/17 14:12:00;;;;;;;4.47;3.30;;;4.00;99.90;;;;;;5118697;28;20554;-64
2023/01/17 14:14:50;;;;;;;5.60;3.20;;;4.00;99.90;;;;;;5118390;28;20503;-64
2023/01/17 14:17:54;;;;;;;12.70;3.67;;;4.00;99.90;;;;;;5118605;28;20758;-64
2023/01/17 14:20:58;;;;;;;7.60;3.00;;;3.90;99.90;;;;;;5118784;28;20504;-64
2023/01/17 14:23:50;;;;;;;9.13;4.80;;;3.80;99.90;;;;;;5123197;27;20437;-64
2023/01/17 14:26:28;;;;;;;6.73;5.30;;;3.90;99.90;;;;;;5139216;27;20473;-64
2023/01/17 14:28:59;;;;;;;5.33;3.10;;;3.90;99.90;;;;;;5137362;27;20951;-64
2023/01/17 14:31:26;;;;;;;7.23;3.67;;;3.90;99.90;;;;;;5131904;27;20438;-64
2023/01/17 14:33:54;;;;;;;9.93;3.00;;;4.00;99.90;;;;;;5138652;27;20901;-64
2023/01/17 14:36:28;;;;;;;13.30;4.40;;;3.80;99.90;;;;;;5136217;27;20459;-64
2023/01/17 14:38:56;;;;;;;10.83;3.80;;;3.70;99.90;;;;;;5138313;27;20459;-64